createdAt,value
2019-02-23T00:03:02.298Z,102853.41
2019-02-23T00:08:06.339Z,102853.94
2019-02-23T00:13:10.563Z,102847.42
2019-02-23T00:18:14.608Z,102848.73
2019-02-23T00:23:18.686Z,102873.33
2019-02-23T00:28:22.712Z,102873.33
2019-02-23T00:33:26.831Z,102890.59
2019-02-23T00:38:30.925Z,102877.52
2019-02-23T00:43:35.202Z,102872.66
2019-02-23T00:48:39.274Z,102872.66
2019-02-23T00:53:43.413Z,102854.18
2019-02-23T00:58:47.572Z,102848.94
2019-02-23T01:03:51.692Z,102848.94
2019-02-23T01:08:55.814Z,102852.88
2019-02-23T01:14:00.021Z,102856.09
2019-02-23T01:19:04.057Z,102856.16
2019-02-23T01:24:08.228Z,102858.37
2019-02-23T01:29:12.450Z,102863.36
2019-02-23T01:34:16.469Z,102861.59
2019-02-23T01:39:20.513Z,102847.30
2019-02-23T01:44:24.563Z,102847.30
2019-02-23T01:49:28.621Z,102816.34
2019-02-23T01:54:32.736Z,102816.34
2019-02-23T01:59:36.779Z,102827.64
2019-02-23T02:04:40.887Z,102827.64
2019-02-23T02:09:45.171Z,102841.73
2019-02-23T02:14:49.242Z,102828.34
2019-02-23T02:19:53.352Z,102812.28
2019-02-23T02:24:57.375Z,102801.09
2019-02-23T02:30:01.454Z,102788.54
2019-02-23T02:35:07.069Z,102788.54
2019-02-23T02:40:11.196Z,102788.70
2019-02-23T02:45:15.289Z,102778.03
2019-02-23T02:50:24.194Z,102783.91
2019-02-23T02:55:25.091Z,102772.82
2019-02-23T03:00:29.184Z,102772.82
2019-02-23T03:05:33.292Z,102772.00
2019-02-23T03:10:37.409Z,102776.55
2019-02-23T03:15:41.535Z,102767.20
2019-02-23T03:20:45.574Z,102766.84
2019-02-23T03:25:49.597Z,102758.31
2019-02-23T03:30:53.704Z,102758.31
2019-02-23T03:35:57.733Z,102748.58
2019-02-23T03:41:01.941Z,102748.58
2019-02-23T03:46:06.045Z,102727.37
2019-02-23T03:51:10.150Z,102751.87
2019-02-23T03:56:14.223Z,102743.86
2019-02-23T04:01:18.378Z,102735.84
2019-02-23T04:06:22.433Z,102736.77
2019-02-23T04:11:26.551Z,102717.07
2019-02-23T04:16:30.591Z,102724.73
2019-02-23T04:21:34.720Z,102733.26
2019-02-23T04:26:38.753Z,102732.44
2019-02-23T04:31:42.794Z,102727.58
2019-02-23T04:36:46.808Z,102739.27
2019-02-23T04:41:50.876Z,102730.33
2019-02-23T04:46:54.989Z,102723.66
2019-02-23T04:51:59.087Z,102723.66
2019-02-23T04:57:03.116Z,102716.98
2019-02-23T05:02:07.261Z,102737.25
2019-02-23T05:07:11.289Z,102738.19
2019-02-23T05:12:15.363Z,102738.23
2019-02-23T05:17:19.544Z,102723.45
2019-02-23T05:22:23.648Z,102723.45
2019-02-23T05:27:28.154Z,102727.12
2019-02-23T05:32:32.218Z,102720.45
2019-02-23T05:37:36.228Z,102725.82
2019-02-23T05:42:40.260Z,102725.82
2019-02-23T05:47:44.297Z,102735.71
2019-02-23T05:52:48.313Z,102745.13
2019-02-23T05:57:52.334Z,102742.02
2019-02-23T06:02:59.424Z,102751.80
2019-02-23T06:08:03.451Z,102742.13
2019-02-23T06:13:07.540Z,102742.13
2019-02-23T06:18:11.565Z,102744.45
2019-02-23T06:23:15.594Z,102777.16
2019-02-23T06:28:19.620Z,102793.77
2019-02-23T06:33:23.722Z,102805.45
2019-02-23T06:38:27.772Z,102814.44
2019-02-23T06:43:31.802Z,102830.14
2019-02-23T06:48:35.839Z,102833.76
2019-02-23T06:53:39.863Z,102826.16
2019-02-23T06:58:43.878Z,102838.72
2019-02-23T07:03:47.907Z,102860.69
2019-02-23T07:08:52.037Z,102879.05
2019-02-23T07:13:56.089Z,102881.77
2019-02-23T07:19:00.111Z,102868.80
2019-02-23T07:24:04.279Z,102868.80
2019-02-23T07:29:08.394Z,102880.90
2019-02-23T07:34:12.439Z,102886.73
2019-02-23T07:39:16.742Z,102877.80
2019-02-23T07:44:20.773Z,102884.98
2019-02-23T07:49:24.800Z,102897.95
2019-02-23T07:54:28.830Z,102898.88
2019-02-23T07:59:32.948Z,102927.26
2019-02-23T08:04:37.091Z,102924.34
2019-02-23T08:09:41.195Z,102931.22
2019-02-23T08:14:45.225Z,102939.49
2019-02-23T08:19:49.256Z,102941.06
2019-02-23T08:24:53.315Z,102937.30
2019-02-23T08:29:57.348Z,102949.37
2019-02-23T08:35:01.415Z,102933.10
2019-02-23T08:40:06.516Z,102933.10
2019-02-23T08:45:10.745Z,102921.72
2019-02-23T08:50:14.861Z,102910.95
2019-02-23T08:55:18.989Z,102898.59
2019-02-23T09:00:23.015Z,102898.59
2019-02-23T09:05:27.053Z,102890.20
2019-02-23T09:10:31.068Z,102894.82
2019-02-23T09:15:35.162Z,102892.80
2019-02-23T09:20:39.322Z,102892.80
2019-02-23T09:25:43.347Z,102881.26
2019-02-23T09:30:47.380Z,102883.99
2019-02-23T09:35:51.412Z,102882.28
2019-02-23T09:40:55.449Z,102886.73
2019-02-23T09:45:59.480Z,102893.52
2019-02-23T09:51:03.603Z,102879.08
2019-02-23T09:56:07.729Z,102874.00
2019-02-23T10:01:11.804Z,102865.62
2019-02-23T10:06:15.844Z,102865.62
2019-02-23T10:11:19.924Z,102859.16
2019-02-23T10:16:24.035Z,102853.41
2019-02-23T10:21:28.173Z,102853.41
2019-02-23T10:26:32.301Z,102830.25
2019-02-23T10:31:36.393Z,102831.57
2019-02-23T10:36:40.498Z,102824.52
2019-02-23T10:41:44.526Z,102822.23
2019-02-23T10:46:48.638Z,102809.83
2019-02-23T10:51:52.779Z,102799.98
2019-02-23T10:56:56.893Z,102795.74
2019-02-23T11:02:01.111Z,102798.76
2019-02-23T11:07:05.296Z,102798.76
2019-02-23T11:12:09.486Z,102797.84
2019-02-23T11:17:13.708Z,102776.58
2019-02-23T11:22:17.859Z,102767.10
2019-02-23T11:27:22.083Z,102760.72
2019-02-23T11:32:26.140Z,102752.77
2019-02-23T11:37:30.249Z,102737.45
2019-02-23T11:42:34.287Z,102732.23
2019-02-23T11:47:38.425Z,102739.16
2019-02-23T11:52:42.552Z,102733.62
2019-02-23T11:57:46.594Z,102731.34
2019-02-23T12:02:52.714Z,102725.91
2019-02-23T12:07:56.490Z,102729.13
2019-02-23T12:13:00.548Z,102731.41
2019-02-23T12:18:04.655Z,102731.41
2019-02-23T12:23:08.705Z,102721.50
2019-02-23T12:28:12.821Z,102721.50
2019-02-23T12:33:16.883Z,102718.13
2019-02-23T12:38:20.933Z,102729.17
2019-02-23T12:43:25.130Z,102710.23
2019-02-23T12:48:29.246Z,102695.83
2019-02-23T12:53:33.324Z,102697.59
2019-02-23T12:58:37.365Z,102697.59
2019-02-23T13:03:41.489Z,102698.98
2019-02-23T13:09:20.619Z,102690.10
2019-02-23T13:14:42.953Z,102686.59
2019-02-23T13:20:10.467Z,102686.59
2019-02-23T13:25:37.351Z,102696.95
2019-02-23T13:31:47.026Z,102692.56
2019-02-23T13:37:35.811Z,102704.27
2019-02-23T13:43:03.073Z,102700.81
2019-02-23T13:48:32.569Z,102694.50
2019-02-23T13:54:00.260Z,102690.39
2019-02-23T13:59:36.663Z,102696.72
2019-02-23T14:05:11.938Z,102691.86
2019-02-23T14:10:24.840Z,102691.86
2019-02-23T14:15:50.470Z,102675.25
2019-02-23T14:21:28.431Z,102677.58
2019-02-23T14:27:09.548Z,102659.69
2019-02-23T14:32:51.941Z,102659.69
2019-02-23T14:38:30.828Z,102645.89
2019-02-23T14:44:17.238Z,102645.89
2019-02-23T14:49:46.817Z,102622.59
2019-02-23T14:55:29.675Z,102622.59
2019-02-23T15:01:11.404Z,102614.22
2019-02-23T15:06:34.457Z,102614.22
2019-02-23T15:12:09.722Z,102634.25
2019-02-23T15:17:25.402Z,102613.18
2019-02-23T15:23:24.797Z,102601.41
2019-02-23T15:28:44.150Z,102598.25
2019-02-23T15:34:29.544Z,102602.57
2019-02-23T15:39:56.827Z,102599.70
2019-02-23T15:45:40.101Z,102614.03
2019-02-23T15:50:44.124Z,102619.38
2019-02-23T15:55:48.180Z,102619.38
2019-02-23T16:00:52.429Z,102619.98
2019-02-23T16:05:56.617Z,102617.01
2019-02-23T16:11:00.713Z,102613.96
2019-02-23T16:16:04.846Z,102623.87
2019-02-23T16:21:08.940Z,102627.47
2019-02-23T16:26:13.173Z,102619.83
2019-02-23T16:31:17.424Z,102622.52
2019-02-23T16:36:21.696Z,102612.61
2019-02-23T16:41:25.740Z,102612.61
2019-02-23T16:46:29.763Z,102623.44
2019-02-23T16:51:33.890Z,102623.44
2019-02-23T16:56:37.955Z,102632.00
2019-02-23T17:01:41.976Z,102613.77
2019-02-23T17:06:46.001Z,102604.00
2019-02-23T17:11:50.064Z,102604.00
2019-02-23T17:16:54.291Z,102616.47
2019-02-23T17:21:58.693Z,102615.80
2019-02-23T17:27:02.882Z,102622.10
2019-02-23T17:32:07.106Z,102620.66
2019-02-23T17:37:11.364Z,102619.67
2019-02-23T17:42:27.498Z,102619.67
2019-02-23T17:47:21.334Z,102623.23
2019-02-23T17:52:25.737Z,102618.19
2019-02-23T17:57:29.814Z,102615.20
2019-02-23T18:02:34.211Z,102605.60
2019-02-23T18:07:38.307Z,102605.61
2019-02-23T18:12:42.487Z,102608.62
2019-02-23T18:17:46.685Z,102602.78
2019-02-23T18:22:50.752Z,102602.78
2019-02-23T18:27:55.182Z,102570.61
2019-02-23T18:32:59.430Z,102579.84
2019-02-23T18:38:03.640Z,102572.10
2019-02-23T18:43:07.886Z,102567.59
2019-02-23T18:53:15.086Z,102563.39
2019-02-23T18:58:19.316Z,102566.02
2019-02-23T19:03:23.530Z,102564.98
2019-02-23T19:08:27.663Z,102564.98
2019-02-23T19:13:31.757Z,102571.12
2019-02-23T19:18:35.873Z,102563.95
2019-02-23T19:23:39.919Z,102561.33
2019-02-23T19:28:44.073Z,102546.16
2019-02-23T19:33:48.182Z,102556.44
2019-02-23T19:38:52.352Z,102557.47
2019-02-23T19:43:56.521Z,102556.14
2019-02-23T19:49:01.911Z,102545.31
2019-02-23T19:54:06.229Z,102543.31
2019-02-23T19:59:10.309Z,102539.91
2019-02-23T20:04:14.437Z,102543.80
2019-02-23T20:09:18.678Z,102543.80
2019-02-23T20:14:22.737Z,102537.03
2019-02-23T20:19:26.803Z,102533.91
2019-02-23T20:24:31.017Z,102527.39
2019-02-23T20:29:37.054Z,102531.59
2019-02-23T20:34:41.499Z,102542.14
2019-02-23T20:39:45.669Z,102549.22
2019-02-23T20:44:49.971Z,102550.11
2019-02-23T20:49:54.132Z,102551.75
2019-02-23T20:54:58.222Z,102531.45
2019-02-23T21:00:02.382Z,102545.53
2019-02-23T21:05:07.584Z,102545.53
2019-02-23T21:10:11.840Z,102538.28
2019-02-23T21:15:15.884Z,102540.62
2019-02-23T21:20:19.927Z,102533.08
2019-02-23T21:25:24.121Z,102535.23
2019-02-23T21:30:28.157Z,102532.14
2019-02-23T21:35:33.650Z,102531.41
2019-02-23T21:40:37.814Z,102519.98
2019-02-23T21:45:42.030Z,102518.49
2019-02-23T21:50:46.080Z,102509.59
2019-02-23T21:55:50.251Z,102514.05
2019-02-23T22:00:54.414Z,102509.68
2019-02-23T22:05:58.524Z,102507.07
2019-02-23T22:11:02.606Z,102508.45
2019-02-23T22:16:06.847Z,102508.45
2019-02-23T22:21:11.062Z,102499.95
2019-02-23T22:26:15.424Z,102508.45
2019-02-23T22:31:19.452Z,102514.83
2019-02-23T22:36:23.595Z,102518.81
2019-02-23T22:41:27.730Z,102516.09
2019-02-23T22:46:31.772Z,102516.09
2019-02-23T22:51:35.793Z,102523.67
2019-02-23T22:56:39.884Z,102513.48
2019-02-23T23:01:44.158Z,102513.48
2019-02-23T23:06:48.388Z,102498.09
2019-02-23T23:11:52.564Z,102495.42
2019-02-23T23:16:56.751Z,102493.60
2019-02-23T23:22:00.959Z,102490.59
2019-02-23T23:27:05.160Z,102490.59
2019-02-23T23:32:09.242Z,102497.80
2019-02-23T23:37:13.319Z,102504.61
2019-02-23T23:42:17.634Z,102504.61
2019-02-23T23:47:21.749Z,102500.08
2019-02-23T23:52:25.857Z,102507.37
2019-02-23T23:57:30.299Z,102505.23
